Time;durP1;ratioP1;P1;durP2;ratioP2;P2;SDS_P1;SDS_P2;PMS_P1;PMS_P2;Temp;Humidity;BMP_temperature;BMP_pressure;BME280_temperature;BME280_humidity;BME280_pressure;Samples;Min_cycle;Max_cycle;Signal;HPM_P1;HPM_P2
2023/08/08 00:01:53;;;;;;;2.83;1.40;;;10.50;99.90;;;;;;5014568;28;20034;-75
2023/08/08 00:04:19;;;;;;;2.28;1.15;;;10.40;99.90;;;;;;5014458;28;20436;-74
2023/08/08 00:06:45;;;;;;;1.80;1.10;;;10.40;99.90;;;;;;5014433;28;20022;-75
2023/08/08 00:09:10;;;;;;;2.47;1.30;;;10.40;99.90;;;;;;5014417;28;20377;-74
2023/08/08 00:11:36;;;;;;;3.13;1.20;;;10.50;99.90;;;;;;5014527;28;20506;-74
2023/08/08 00:14:02;;;;;;;3.58;1.85;;;10.40;99.90;;;;;;5014568;28;20619;-75
2023/08/08 00:16:28;;;;;;;3.13;1.10;;;10.50;99.90;;;;;;5013684;28;20038;-75
2023/08/08 00:18:53;;;;;;;3.83;1.20;;;10.60;99.90;;;;;;5013090;28;20129;-74
2023/08/08 00:21:20;;;;;;;3.45;0.93;;;10.50;99.90;;;;;;5014232;28;20472;-75
2023/08/08 00:23:46;;;;;;;2.50;1.10;;;10.50;99.90;;;;;;5014095;28;20029;-75
2023/08/08 00:26:12;;;;;;;2.28;1.17;;;10.40;99.90;;;;;;5014151;28;20070;-75
2023/08/08 00:28:37;;;;;;;2.03;1.20;;;10.30;99.90;;;;;;5014176;28;20485;-75
2023/08/08 00:31:03;;;;;;;3.40;1.48;;;10.20;99.90;;;;;;5013999;28;20022;-75
2023/08/08 00:33:29;;;;;;;2.85;1.23;;;10.20;99.90;;;;;;5014305;28;20034;-75
2023/08/08 00:35:55;;;;;;;3.45;1.38;;;10.10;99.90;;;;;;5012714;28;20032;-74
2023/08/08 00:38:20;;;;;;;2.28;1.10;;;10.10;99.90;;;;;;5014175;28;20045;-75
2023/08/08 00:40:46;;;;;;;2.00;1.17;;;10.10;99.90;;;;;;5012903;28;20037;-75
2023/08/08 00:43:14;;;;;;;4.05;1.00;;;10.10;99.90;;;;;;5013373;28;20088;-75
2023/08/08 00:45:42;;;;;;;2.25;1.17;;;10.20;99.90;;;;;;5013895;28;20034;-75
2023/08/08 00:48:08;;;;;;;3.72;1.10;;;10.20;99.90;;;;;;5013896;28;20504;-75
2023/08/08 00:50:36;;;;;;;2.22;1.25;;;10.20;99.90;;;;;;5013879;28;20029;-75
2023/08/08 00:53:02;;;;;;;1.90;1.10;;;10.30;99.90;;;;;;5014085;28;20025;-75
2023/08/08 00:55:29;;;;;;;4.72;1.27;;;10.30;99.90;;;;;;5013613;28;20492;-74
2023/08/08 00:57:54;;;;;;;2.53;1.10;;;10.30;99.90;;;;;;5013575;28;20040;-75
2023/08/08 01:00:20;;;;;;;1.83;1.10;;;10.20;99.90;;;;;;5013658;28;20026;-75
2023/08/08 01:02:46;;;;;;;1.85;1.10;;;10.10;99.90;;;;;;5013640;28;20041;-75
2023/08/08 01:05:12;;;;;;;2.50;1.38;;;10.00;99.90;;;;;;5013612;28;20026;-75
2023/08/08 01:08:02;;;;;;;2.13;1.20;;;9.90;99.90;;;;;;5014083;28;20022;-75
2023/08/08 01:10:39;;;;;;;4.65;1.10;;;9.90;99.90;;;;;;5013593;28;20026;-75
2023/08/08 01:13:11;;;;;;;2.30;1.20;;;9.80;99.90;;;;;;4996313;28;20038;-75
2023/08/08 01:15:38;;;;;;;2.30;1.23;;;9.80;99.90;;;;;;5013603;28;20080;-75
2023/08/08 01:18:05;;;;;;;1.90;1.00;;;9.80;99.90;;;;;;5012076;28;20034;-75
2023/08/08 01:20:35;;;;;;;2.70;1.17;;;9.70;99.90;;;;;;5013439;28;20041;-75
2023/08/08 01:23:12;;;;;;;2.97;1.30;;;9.60;99.90;;;;;;5013640;28;20030;-75
2023/08/08 01:25:40;;;;;;;3.00;1.08;;;9.50;99.90;;;;;;5012264;28;20029;-75
2023/08/08 01:28:07;;;;;;;3.20;1.40;;;9.50;99.90;;;;;;5013522;28;20049;-74
2023/08/08 01:30:32;;;;;;;2.00;1.08;;;9.40;99.90;;;;;;5013425;28;20089;-75
2023/08/08 01:32:58;;;;;;;2.30;1.08;;;9.40;99.90;;;;;;5013393;28;20104;-75
2023/08/08 01:35:28;;;;;;;2.65;1.27;;;9.50;99.90;;;;;;5013340;28;20034;-75
2023/08/08 01:38:04;;;;;;;1.90;1.00;;;9.50;99.90;;;;;;5013261;28;20113;-75
2023/08/08 01:40:31;;;;;;;2.20;1.00;;;9.50;99.90;;;;;;5013522;28;20022;-75
2023/08/08 01:42:58;;;;;;;2.13;1.17;;;9.60;99.90;;;;;;5013369;28;20030;-75
2023/08/08 01:45:24;;;;;;;2.33;1.23;;;9.50;99.90;;;;;;5013315;28;20030;-75
2023/08/08 01:47:54;;;;;;;2.00;1.25;;;9.50;99.90;;;;;;5012017;28;20064;-75
2023/08/08 01:50:21;;;;;;;2.55;1.20;;;9.40;99.90;;;;;;5013179;28;20084;-75
2023/08/08 01:52:47;;;;;;;1.73;1.17;;;9.40;99.90;;;;;;5013188;28;20392;-75
2023/08/08 01:55:13;;;;;;;2.08;1.30;;;9.40;99.90;;;;;;5014835;28;20026;-75
2023/08/08 01:57:38;;;;;;;2.45;1.30;;;9.40;99.90;;;;;;5017011;28;20029;-75
2023/08/08 02:00:06;;;;;;;2.65;1.20;;;9.40;99.90;;;;;;5016892;28;20036;-75
2023/08/08 02:02:32;;;;;;;2.97;1.20;;;9.40;99.90;;;;;;5016712;28;20026;-75
2023/08/08 02:04:57;;;;;;;2.35;1.23;;;9.40;99.90;;;;;;5017257;28;20064;-75
2023/08/08 02:07:23;;;;;;;2.22;1.40;;;9.40;99.90;;;;;;5016719;28;20034;-75
2023/08/08 02:09:50;;;;;;;2.67;1.70;;;9.40;99.90;;;;;;5015447;28;20033;-75
2023/08/08 02:12:16;;;;;;;6.10;3.40;;;9.40;99.90;;;;;;5016613;28;20101;-75
2023/08/08 02:14:42;;;;;;;3.60;2.78;;;9.40;99.90;;;;;;5015635;28;20034;-74
2023/08/08 02:17:08;;;;;;;3.90;3.03;;;9.30;99.90;;;;;;5016552;28;20037;-75
2023/08/08 02:19:33;;;;;;;3.78;2.80;;;9.30;99.90;;;;;;5016408;28;20451;-75
2023/08/08 02:21:59;;;;;;;5.68;4.00;;;9.20;99.90;;;;;;5015220;28;20495;-75
2023/08/08 02:24:25;;;;;;;3.67;2.50;;;9.20;99.90;;;;;;5015105;28;20535;-74
2023/08/08 02:26:50;;;;;;;3.25;2.20;;;9.20;99.90;;;;;;5016333;28;20061;-75
2023/08/08 02:29:16;;;;;;;3.25;1.92;;;9.20;99.90;;;;;;5015074;28;20026;-75
2023/08/08 02:31:41;;;;;;;3.80;2.42;;;9.10;99.90;;;;;;5016240;28;20096;-75
2023/08/08 02:34:07;;;;;;;3.28;2.50;;;9.10;99.90;;;;;;5001982;28;20031;-74
2023/08/08 02:36:33;;;;;;;4.50;2.33;;;9.00;99.90;;;;;;4995391;28;20043;-75
2023/08/08 02:38:59;;;;;;;2.55;1.70;;;8.90;99.90;;;;;;4996488;28;20038;-75
2023/08/08 02:41:24;;;;;;;2.97;1.73;;;9.00;99.90;;;;;;4995293;28;20088;-74
2023/08/08 02:43:50;;;;;;;2.88;1.33;;;9.00;99.90;;;;;;4995178;28;20122;-75
2023/08/08 02:46:16;;;;;;;3.15;1.23;;;9.00;99.90;;;;;;4995153;28;20081;-75
2023/08/08 02:48:41;;;;;;;2.33;1.20;;;9.00;99.90;;;;;;4996839;28;20074;-75
2023/08/08 02:51:07;;;;;;;3.90;1.10;;;9.00;99.90;;;;;;4997541;28;20037;-75
2023/08/08 02:53:33;;;;;;;1.88;1.02;;;9.00;99.90;;;;;;4996550;28;20031;-75
2023/08/08 02:55:58;;;;;;;1.83;0.98;;;9.00;99.90;;;;;;4996410;28;20117;-75
2023/08/08 02:58:24;;;;;;;1.60;0.85;;;9.00;99.90;;;;;;4996143;28;20032;-75
2023/08/08 03:00:50;;;;;;;2.25;1.00;;;9.00;99.90;;;;;;4995007;28;20027;-75
2023/08/08 03:03:15;;;;;;;1.63;1.00;;;9.00;99.90;;;;;;4996030;28;20081;-75
2023/08/08 03:05:41;;;;;;;2.80;1.10;;;8.90;99.90;;;;;;4996052;28;20026;-75
2023/08/08 03:08:07;;;;;;;2.42;1.45;;;8.90;99.90;;;;;;4993870;28;20026;-75
2023/08/08 03:10:32;;;;;;;3.83;1.50;;;8.80;99.90;;;;;;4996263;28;20539;-75
2023/08/08 03:12:58;;;;;;;2.65;1.55;;;8.60;99.90;;;;;;4996247;28;20440;-74
2023/08/08 03:15:23;;;;;;;3.55;1.42;;;8.50;99.90;;;;;;4995850;28;20113;-75
2023/08/08 03:17:49;;;;;;;2.85;1.58;;;8.40;99.90;;;;;;4995597;28;20038;-75
2023/08/08 03:20:15;;;;;;;3.50;1.50;;;8.30;99.90;;;;;;4995752;28;20026;-75
2023/08/08 03:22:41;;;;;;;4.78;2.35;;;8.20;99.90;;;;;;4995614;28;20126;-74
2023/08/08 03:25:07;;;;;;;5.68;2.50;;;8.20;99.90;;;;;;4995654;28;20026;-75
2023/08/08 03:27:33;;;;;;;3.92;2.30;;;8.10;99.90;;;;;;4995943;28;20027;-75
2023/08/08 03:29:58;;;;;;;3.70;2.00;;;8.10;99.90;;;;;;4995752;28;20337;-75
2023/08/08 03:32:24;;;;;;;3.83;1.70;;;8.00;99.90;;;;;;4995611;28;20022;-75
2023/08/08 03:34:50;;;;;;;2.47;1.60;;;8.10;99.90;;;;;;4995787;28;20026;-74
2023/08/08 03:37:15;;;;;;;2.05;1.23;;;8.20;99.90;;;;;;4994396;28;20030;-75
2023/08/08 03:39:41;;;;;;;2.92;1.25;;;8.20;99.90;;;;;;4977907;28;20026;-74
2023/08/08 03:42:07;;;;;;;3.67;1.40;;;8.30;99.90;;;;;;4995332;28;20099;-75
2023/08/08 03:44:32;;;;;;;1.50;0.90;;;8.40;99.90;;;;;;4995241;28;20077;-75
2023/08/08 03:46:58;;;;;;;1.52;1.00;;;8.40;99.90;;;;;;4995232;28;20049;-75
2023/08/08 03:49:24;;;;;;;2.33;1.35;;;8.40;99.90;;;;;;5002621;28;20065;-74
2023/08/08 03:51:50;;;;;;;1.88;1.10;;;8.40;99.90;;;;;;5003351;28;20018;-74
2023/08/08 03:54:16;;;;;;;2.20;1.27;;;8.40;99.90;;;;;;5004821;28;20028;-74
2023/08/08 03:56:42;;;;;;;2.83;1.20;;;8.40;99.90;;;;;;5004869;28;20034;-74
2023/08/08 03:59:07;;;;;;;2.72;1.40;;;8.40;99.90;;;;;;5003196;28;20033;-74
2023/08/08 04:01:33;;;;;;;2.47;1.20;;;8.40;99.90;;;;;;5003831;28;20033;-74
2023/08/08 04:03:59;;;;;;;2.00;1.20;;;8.40;99.90;;;;;;5004300;28;20038;-74
2023/08/08 04:06:24;;;;;;;2.55;1.33;;;8.50;99.90;;;;;;5005921;28;20067;-74
2023/08/08 04:08:50;;;;;;;2.22;1.40;;;8.50;99.90;;;;;;5014460;28;20451;-75
2023/08/08 04:11:16;;;;;;;2.83;1.40;;;8.50;99.90;;;;;;5014371;28;20088;-75
2023/08/08 04:13:42;;;;;;;2.83;1.60;;;8.50;99.90;;;;;;5014349;28;20044;-74
2023/08/08 04:16:08;;;;;;;2.58;1.55;;;8.60;99.90;;;;;;5014362;28;20109;-75
2023/08/08 04:18:33;;;;;;;2.25;1.38;;;8.60;99.90;;;;;;5013724;28;20072;-75
2023/08/08 04:20:59;;;;;;;2.78;1.50;;;8.60;99.90;;;;;;5014227;28;20096;-75
2023/08/08 04:23:25;;;;;;;3.40;1.60;;;8.60;99.90;;;;;;5014494;28;20129;-75
2023/08/08 04:25:52;;;;;;;2.35;1.30;;;8.60;99.90;;;;;;5014242;28;20022;-75
2023/08/08 04:28:18;;;;;;;2.08;1.25;;;8.60;99.90;;;;;;5012867;28;20054;-75
2023/08/08 04:30:44;;;;;;;1.90;1.27;;;8.60;99.90;;;;;;5014461;28;20029;-75
2023/08/08 04:33:09;;;;;;;3.30;1.33;;;8.60;99.90;;;;;;5013949;28;20030;-75
2023/08/08 04:35:35;;;;;;;3.10;1.48;;;8.60;99.90;;;;;;5014005;28;20062;-75
2023/08/08 04:38:01;;;;;;;2.92;1.80;;;8.60;99.90;;;;;;5013941;28;20033;-75
2023/08/08 04:40:27;;;;;;;4.75;2.47;;;8.60;99.90;;;;;;5012754;28;20096;-75
2023/08/08 04:42:53;;;;;;;6.72;3.47;;;8.60;99.90;;;;;;5013837;28;20037;-75
2023/08/08 04:45:20;;;;;;;4.25;2.80;;;8.60;99.90;;;;;;5013792;28;20028;-75
2023/08/08 04:47:46;;;;;;;4.63;2.67;;;8.60;99.90;;;;;;5013820;28;20025;-75
2023/08/08 04:50:12;;;;;;;5.10;2.90;;;8.60;99.90;;;;;;5024331;28;20037;-75
2023/08/08 04:52:38;;;;;;;5.82;3.75;;;8.60;99.90;;;;;;5028150;28;20076;-75
2023/08/08 04:55:04;;;;;;;10.23;6.03;;;8.60;99.90;;;;;;5032221;28;20025;-75
2023/08/08 04:57:30;;;;;;;11.02;5.88;;;8.60;99.90;;;;;;5032287;28;20061;-75
2023/08/08 04:59:57;;;;;;;7.03;4.32;;;8.60;99.90;;;;;;5032095;28;20060;-75
2023/08/08 05:02:22;;;;;;;6.30;2.85;;;8.60;99.90;;;;;;5033377;28;20018;-75
2023/08/08 05:04:49;;;;;;;3.63;2.15;;;8.60;99.90;;;;;;5031737;28;20108;-75
2023/08/08 05:07:15;;;;;;;3.00;1.55;;;8.60;99.90;;;;;;5033389;28;20480;-75
2023/08/08 05:09:41;;;;;;;2.50;1.30;;;8.70;99.90;;;;;;5031498;28;20431;-75
2023/08/08 05:12:07;;;;;;;3.08;1.30;;;8.70;99.90;;;;;;5033172;28;20025;-75
2023/08/08 05:14:32;;;;;;;4.75;1.83;;;8.60;99.90;;;;;;5033373;28;20039;-74
2023/08/08 05:16:58;;;;;;;4.15;1.98;;;8.60;99.90;;;;;;5033376;28;20018;-74
2023/08/08 05:19:25;;;;;;;4.70;1.95;;;8.70;99.90;;;;;;5031747;28;20041;-74
2023/08/08 05:21:50;;;;;;;3.35;1.60;;;8.70;99.90;;;;;;5033189;28;20029;-75
2023/08/08 05:24:16;;;;;;;3.45;1.80;;;8.70;99.90;;;;;;5015197;28;20121;-74
2023/08/08 05:26:41;;;;;;;3.00;1.65;;;8.70;99.90;;;;;;5031599;28;20032;-74
2023/08/08 05:29:07;;;;;;;4.10;1.50;;;8.70;99.90;;;;;;5033068;28;20438;-74
2023/08/08 05:31:33;;;;;;;1.90;1.25;;;8.70;99.90;;;;;;5036585;28;20479;-74
2023/08/08 05:33:58;;;;;;;2.28;1.30;;;8.70;99.90;;;;;;5037193;28;20488;-75
2023/08/08 05:36:24;;;;;;;6.68;1.42;;;8.80;99.90;;;;;;5036962;28;20480;-74
2023/08/08 05:38:50;;;;;;;4.35;1.23;;;8.80;99.90;;;;;;5037077;28;20033;-75
2023/08/08 05:41:15;;;;;;;2.20;1.10;;;8.80;99.90;;;;;;5036684;28;20036;-75
2023/08/08 05:43:42;;;;;;;2.72;1.30;;;8.90;99.90;;;;;;5035791;28;20610;-75
2023/08/08 05:46:08;;;;;;;1.83;1.00;;;8.90;99.90;;;;;;5036911;28;20047;-74
2023/08/08 05:48:33;;;;;;;2.10;1.10;;;8.90;99.90;;;;;;5036847;28;20028;-75
2023/08/08 05:50:59;;;;;;;2.08;1.10;;;8.90;99.90;;;;;;5037061;28;20387;-77
2023/08/08 05:53:25;;;;;;;1.52;1.00;;;9.00;99.90;;;;;;5036764;28;20029;-75
2023/08/08 05:55:51;;;;;;;2.30;1.20;;;9.00;99.90;;;;;;5036641;28;20108;-74
2023/08/08 05:58:16;;;;;;;2.22;1.23;;;9.10;99.90;;;;;;5035525;28;20442;-75
2023/08/08 06:00:42;;;;;;;2.13;0.98;;;9.10;99.90;;;;;;5019047;28;20034;-75
2023/08/08 06:03:08;;;;;;;5.03;1.30;;;9.10;99.90;;;;;;5036644;28;20030;-75
2023/08/08 06:05:34;;;;;;;2.55;1.20;;;9.10;99.90;;;;;;5036567;28;20387;-75
2023/08/08 06:08:00;;;;;;;2.58;1.17;;;9.20;99.90;;;;;;5036450;28;20410;-75
2023/08/08 06:10:26;;;;;;;4.47;1.17;;;9.10;99.90;;;;;;5035031;28;20022;-74
2023/08/08 06:12:51;;;;;;;2.38;1.20;;;9.20;99.90;;;;;;5035175;28;20460;-75
2023/08/08 06:15:17;;;;;;;2.33;1.23;;;9.20;99.90;;;;;;5035276;28;20420;-75
2023/08/08 06:17:43;;;;;;;3.03;1.38;;;9.20;99.90;;;;;;5035869;28;20033;-75
2023/08/08 06:20:09;;;;;;;2.53;1.40;;;9.30;99.90;;;;;;5036064;28;20492;-75
2023/08/08 06:22:36;;;;;;;2.20;1.27;;;9.30;99.90;;;;;;5034738;28;20032;-75
2023/08/08 06:25:02;;;;;;;2.17;1.20;;;9.30;99.90;;;;;;5034384;28;20029;-75
2023/08/08 06:27:28;;;;;;;3.10;1.40;;;9.40;99.90;;;;;;5035589;28;20049;-74
2023/08/08 06:29:53;;;;;;;2.70;1.40;;;9.40;99.90;;;;;;5035835;28;20107;-75
2023/08/08 06:32:19;;;;;;;2.78;1.10;;;9.60;99.90;;;;;;5035286;28;20436;-75
2023/08/08 06:34:45;;;;;;;2.10;1.10;;;9.60;99.90;;;;;;5037013;28;20141;-74
2023/08/08 06:37:10;;;;;;;2.63;1.27;;;9.70;99.90;;;;;;5036553;28;20026;-75
2023/08/08 06:39:38;;;;;;;2.55;1.23;;;9.70;99.90;;;;;;5036813;28;20025;-74
2023/08/08 06:42:04;;;;;;;2.53;1.40;;;9.80;99.90;;;;;;5033543;28;20030;-75
2023/08/08 06:44:32;;;;;;;3.63;1.30;;;9.90;99.90;;;;;;5034542;28;20044;-75
2023/08/08 06:46:58;;;;;;;2.95;1.50;;;10.00;99.90;;;;;;5035859;28;20369;-74
2023/08/08 06:49:23;;;;;;;2.70;1.20;;;10.10;99.90;;;;;;5035665;28;20032;-75
2023/08/08 06:51:49;;;;;;;2.08;1.20;;;10.10;99.90;;;;;;5035633;28;20479;-75
2023/08/08 06:54:15;;;;;;;2.20;1.23;;;10.20;99.90;;;;;;5034602;28;20021;-75
2023/08/08 06:56:40;;;;;;;2.60;1.13;;;10.30;99.90;;;;;;5034696;28;20391;-75
2023/08/08 06:59:06;;;;;;;1.75;1.02;;;10.40;99.90;;;;;;5034392;28;20076;-75
2023/08/08 07:01:32;;;;;;;3.17;1.00;;;10.50;99.90;;;;;;5034786;28;20037;-75
2023/08/08 07:03:57;;;;;;;1.77;1.05;;;10.60;99.90;;;;;;5034098;28;20036;-74
2023/08/08 07:06:23;;;;;;;3.17;1.40;;;10.70;99.90;;;;;;5035896;28;20545;-75
2023/08/08 07:08:49;;;;;;;1.67;1.10;;;10.70;99.90;;;;;;5035319;28;20569;-75
2023/08/08 07:11:15;;;;;;;2.63;1.50;;;10.80;99.90;;;;;;5018069;28;20033;-75
2023/08/08 07:13:40;;;;;;;3.85;2.55;;;10.80;99.90;;;;;;5035283;28;20029;-75
2023/08/08 07:16:06;;;;;;;4.40;3.47;;;10.90;99.90;;;;;;5035269;28;20022;-75
2023/08/08 07:18:32;;;;;;;5.70;3.47;;;11.00;99.90;;;;;;5035169;28;20579;-75
2023/08/08 07:20:57;;;;;;;7.50;3.72;;;11.10;99.90;;;;;;5034299;28;20040;-75
2023/08/08 07:23:23;;;;;;;5.03;3.90;;;11.20;99.90;;;;;;5035588;28;20388;-75
2023/08/08 07:25:49;;;;;;;7.40;3.63;;;11.30;99.90;;;;;;5033797;28;20029;-75
2023/08/08 07:28:15;;;;;;;4.68;3.67;;;11.30;99.90;;;;;;5035081;28;20559;-75
2023/08/08 07:30:41;;;;;;;7.35;3.38;;;11.40;99.90;;;;;;5035228;28;20365;-75
2023/08/08 07:33:08;;;;;;;5.35;3.88;;;11.50;99.90;;;;;;5035149;28;20078;-75
2023/08/08 07:35:34;;;;;;;5.45;3.28;;;11.50;99.90;;;;;;5034906;28;20026;-75
2023/08/08 07:38:00;;;;;;;5.72;3.30;;;11.60;99.90;;;;;;5035059;28;20036;-75
2023/08/08 07:40:26;;;;;;;6.20;3.20;;;11.70;99.90;;;;;;5034993;28;20029;-75
2023/08/08 07:42:51;;;;;;;4.13;3.00;;;11.80;99.90;;;;;;5033773;28;20176;-75
2023/08/08 07:45:17;;;;;;;4.70;3.13;;;11.90;99.90;;;;;;5034930;28;20025;-75
2023/08/08 07:47:43;;;;;;;4.03;3.10;;;12.00;99.90;;;;;;5034918;28;20373;-75
2023/08/08 07:50:09;;;;;;;3.78;2.78;;;12.10;99.90;;;;;;5034626;28;20180;-76
2023/08/08 07:52:38;;;;;;;4.53;2.55;;;12.20;99.90;;;;;;5032994;28;20108;-75
2023/08/08 07:55:05;;;;;;;4.93;2.50;;;12.40;99.90;;;;;;5034513;28;20415;-75
2023/08/08 07:57:34;;;;;;;2.97;2.20;;;12.50;99.90;;;;;;5034512;28;20060;-75
2023/08/08 08:00:13;;;;;;;3.42;2.40;;;12.60;99.90;;;;;;5034387;28;20029;-75
2023/08/08 08:02:43;;;;;;;3.28;2.38;;;12.70;99.90;;;;;;5034736;28;20104;-76
2023/08/08 08:05:09;;;;;;;2.78;2.10;;;12.80;99.90;;;;;;5034398;28;20029;-76
2023/08/08 08:07:36;;;;;;;2.92;1.90;;;12.90;99.90;;;;;;5034284;28;20480;-76
2023/08/08 08:10:07;;;;;;;3.30;1.85;;;13.00;99.90;;;;;;5032879;28;20036;-75
2023/08/08 08:12:33;;;;;;;;;;;13.20;99.90;;;;;;5035009;28;20483;-76
2023/08/08 08:14:58;;;;;;;3.60;1.65;;;13.30;99.90;;;;;;5034064;28;19944;-76
2023/08/08 08:17:24;;;;;;;2.97;1.65;;;13.50;99.90;;;;;;5034252;28;20034;-76
2023/08/08 08:19:51;;;;;;;3.25;1.60;;;13.60;99.90;;;;;;5034102;28;20036;-75
2023/08/08 08:22:17;;;;;;;3.70;2.08;;;13.70;99.90;;;;;;5034190;28;20036;-78
2023/08/08 08:24:43;;;;;;;4.80;2.20;;;13.90;99.90;;;;;;5034407;28;20030;-75
2023/08/08 08:27:08;;;;;;;2.65;1.80;;;14.00;99.90;;;;;;5032945;28;20164;-76
2023/08/08 08:29:34;;;;;;;2.97;2.03;;;14.10;99.90;;;;;;5034667;28;20026;-76
2023/08/08 08:32:00;;;;;;;10.65;2.33;;;14.30;99.90;;;;;;5033054;28;20026;-76
2023/08/08 08:34:25;;;;;;;3.30;1.83;;;14.40;99.90;;;;;;5033802;28;20038;-76
2023/08/08 08:36:51;;;;;;;5.13;2.70;;;14.60;99.90;;;;;;5033775;28;20510;-75
2023/08/08 08:39:17;;;;;;;3.15;1.80;;;14.70;99.90;;;;;;5032605;28;20091;-76
2023/08/08 08:41:48;;;;;;;3.38;1.83;;;14.90;99.90;;;;;;5033789;28;20506;-76
2023/08/08 08:44:15;;;;;;;;;;;15.00;99.90;;;;;;5034110;28;20064;-76
2023/08/08 08:46:42;;;;;;;2.90;1.45;;;15.10;99.90;;;;;;5033761;28;20367;-76
2023/08/08 08:49:09;;;;;;;5.90;1.80;;;15.20;99.90;;;;;;5033581;28;20033;-76
2023/08/08 08:51:36;;;;;;;1.77;1.20;;;15.30;99.90;;;;;;5033595;28;20530;-76
2023/08/08 08:54:02;;;;;;;1.75;0.98;;;15.40;99.90;;;;;;5032384;28;20041;-76
2023/08/08 08:56:28;;;;;;;3.30;1.27;;;15.50;99.90;;;;;;5032545;28;20025;-76
2023/08/08 08:58:54;;;;;;;2.33;1.30;;;15.60;99.90;;;;;;5032317;28;20041;-76
2023/08/08 09:01:22;;;;;;;2.22;1.10;;;15.80;99.90;;;;;;5033769;28;20030;-76
2023/08/08 09:03:49;;;;;;;2.65;1.27;;;15.90;99.90;;;;;;5033425;28;20036;-76
2023/08/08 09:06:16;;;;;;;1.85;0.90;;;16.00;99.90;;;;;;5031722;28;20025;-76
2023/08/08 09:08:41;;;;;;;2.78;1.30;;;16.20;99.90;;;;;;5033560;28;20436;-76
2023/08/08 09:11:08;;;;;;;2.40;1.40;;;16.30;99.90;;;;;;5032273;28;20109;-76
2023/08/08 09:13:38;;;;;;;3.20;1.10;;;16.40;99.90;;;;;;5015679;28;20033;-76
2023/08/08 09:16:12;;;;;;;2.53;1.17;;;16.40;99.90;;;;;;5033674;28;20036;-76
2023/08/08 09:18:38;;;;;;;3.03;1.15;;;16.50;99.90;;;;;;5016033;28;20041;-76
2023/08/08 09:21:07;;;;;;;2.30;1.17;;;16.70;99.90;;;;;;5033294;28;20022;-76
2023/08/08 09:23:32;;;;;;;2.10;1.00;;;16.80;99.90;;;;;;5031936;28;20570;-76
2023/08/08 09:25:58;;;;;;;1.63;0.90;;;16.90;99.90;;;;;;5033779;28;20053;-76
2023/08/08 09:28:25;;;;;;;1.67;0.90;;;17.00;99.90;;;;;;5033187;28;20056;-76
2023/08/08 09:30:50;;;;;;;2.35;1.15;;;17.10;99.90;;;;;;5033215;28;20021;-76
2023/08/08 09:33:17;;;;;;;2.00;0.88;;;17.20;99.90;;;;;;5032029;28;20553;-76
2023/08/08 09:35:44;;;;;;;2.92;0.82;;;17.30;98.90;;;;;;5033183;28;20430;-76
2023/08/08 09:38:09;;;;;;;3.50;1.20;;;17.40;97.60;;;;;;5033075;28;20049;-76
2023/08/08 09:40:36;;;;;;;2.72;1.30;;;17.50;97.00;;;;;;5032186;28;20526;-76
2023/08/08 09:43:02;;;;;;;2.03;1.10;;;17.70;97.70;;;;;;5031877;28;20029;-76
2023/08/08 09:45:36;;;;;;;2.88;1.30;;;17.80;97.30;;;;;;5033200;28;20029;-76
2023/08/08 09:48:03;;;;;;;3.75;1.30;;;18.00;97.60;;;;;;5033255;28;20480;-76
2023/08/08 09:50:29;;;;;;;2.83;1.42;;;18.10;97.20;;;;;;5015403;28;20175;-77
2023/08/08 09:52:56;;;;;;;2.42;1.15;;;18.20;96.40;;;;;;5033267;28;20033;-77
2023/08/08 09:55:22;;;;;;;2.72;1.10;;;18.40;95.20;;;;;;5032109;28;20021;-76
2023/08/08 09:57:49;;;;;;;4.30;1.35;;;18.40;94.10;;;;;;5015262;28;20038;-77
2023/08/08 10:00:20;;;;;;;2.40;1.20;;;18.60;92.20;;;;;;5031412;28;20026;-77
2023/08/08 10:02:46;;;;;;;3.50;1.38;;;18.60;92.50;;;;;;5032744;28;20151;-76
2023/08/08 10:05:14;;;;;;;2.83;1.30;;;18.70;92.90;;;;;;5031391;28;20108;-76
2023/08/08 10:07:43;;;;;;;2.72;1.00;;;18.80;91.20;;;;;;5031311;28;20025;-76
2023/08/08 10:10:10;;;;;;;1.58;0.88;;;18.90;92.30;;;;;;5031557;28;20488;-76
2023/08/08 10:12:39;;;;;;;2.20;1.10;;;19.00;91.50;;;;;;5031639;28;20022;-76
2023/08/08 10:15:09;;;;;;;2.42;1.27;;;19.10;91.70;;;;;;5032646;28;20102;-76
2023/08/08 10:17:37;;;;;;;2.00;1.27;;;19.20;92.50;;;;;;5034507;28;20109;-76
2023/08/08 10:20:11;;;;;;;1.60;0.90;;;19.30;90.50;;;;;;5035013;28;20022;-76
2023/08/08 10:22:41;;;;;;;2.00;1.00;;;19.40;88.50;;;;;;5036373;28;20379;-77
2023/08/08 10:25:08;;;;;;;2.50;0.90;;;19.50;85.80;;;;;;5036562;28;20079;-76
2023/08/08 10:27:35;;;;;;;2.20;1.15;;;19.60;88.00;;;;;;5035061;28;20272;-76
2023/08/08 10:30:10;;;;;;;3.17;1.02;;;19.70;86.00;;;;;;5036113;28;20029;-77
2023/08/08 10:32:48;;;;;;;2.42;1.10;;;19.80;83.10;;;;;;5034900;28;20027;-76
2023/08/08 10:35:14;;;;;;;2.97;1.10;;;19.90;83.80;;;;;;5034953;28;20029;-77
2023/08/08 10:37:51;;;;;;;1.85;0.98;;;20.00;82.40;;;;;;5034664;28;20034;-76
2023/08/08 10:40:19;;;;;;;2.10;1.00;;;20.10;79.30;;;;;;5036393;28;20060;-77
2023/08/08 10:42:46;;;;;;;1.38;0.80;;;20.10;78.10;;;;;;5036302;28;20030;-76
2023/08/08 10:45:15;;;;;;;1.95;1.10;;;20.20;80.30;;;;;;5034801;28;20056;-77
2023/08/08 10:47:42;;;;;;;2.80;1.00;;;20.30;80.20;;;;;;5035877;28;20025;-76
2023/08/08 10:50:11;;;;;;;1.80;0.98;;;20.40;78.60;;;;;;5035860;28;20022;-76
2023/08/08 10:52:49;;;;;;;2.72;1.08;;;20.50;81.00;;;;;;5034527;28;20044;-76
2023/08/08 10:55:22;;;;;;;1.98;1.05;;;20.60;82.50;;;;;;5036891;28;20033;-76
2023/08/08 10:57:59;;;;;;;1.75;0.98;;;20.70;77.60;;;;;;5034721;28;20025;-76
2023/08/08 11:00:29;;;;;;;2.50;1.10;;;20.80;75.60;;;;;;5034482;28;20021;-76
2023/08/08 11:02:55;;;;;;;2.40;1.30;;;20.90;73.30;;;;;;5035685;28;20037;-76
2023/08/08 11:05:22;;;;;;;2.20;0.95;;;21.00;73.60;;;;;;5035321;28;20026;-76
2023/08/08 11:07:48;;;;;;;1.83;0.90;;;21.00;75.40;;;;;;5030731;28;20556;-76
2023/08/08 11:10:14;;;;;;;2.38;0.90;;;21.10;73.10;;;;;;5015581;28;20025;-76
2023/08/08 11:12:40;;;;;;;1.92;1.15;;;21.10;71.70;;;;;;5015508;28;20028;-77
2023/08/08 11:15:06;;;;;;;1.67;0.70;;;21.20;70.40;;;;;;5018054;28;20484;-76
2023/08/08 11:17:32;;;;;;;2.78;1.00;;;21.20;65.60;;;;;;5013910;28;20045;-76
2023/08/08 11:19:58;;;;;;;2.17;0.90;;;21.20;68.20;;;;;;5014487;28;20037;-77
2023/08/08 11:22:24;;;;;;;2.13;0.93;;;21.30;72.70;;;;;;5014014;28;20061;-76
2023/08/08 11:24:50;;;;;;;1.98;0.82;;;21.40;67.90;;;;;;5017772;28;20040;-76
2023/08/08 11:27:16;;;;;;;1.65;0.70;;;21.40;68.90;;;;;;5013458;28;20030;-76
2023/08/08 11:29:51;;;;;;;2.00;0.80;;;21.50;70.50;;;;;;5014460;28;20358;-76
2023/08/08 11:32:17;;;;;;;2.17;1.25;;;21.60;66.80;;;;;;5015544;28;20022;-77
2023/08/08 11:34:46;;;;;;;2.05;1.05;;;21.80;66.50;;;;;;5013657;28;20075;-77
2023/08/08 11:37:14;;;;;;;2.42;1.00;;;21.90;68.60;;;;;;5013698;28;20131;-77
2023/08/08 11:39:41;;;;;;;2.00;1.08;;;22.10;69.00;;;;;;5013458;28;20109;-76
2023/08/08 11:42:09;;;;;;;2.30;0.90;;;22.20;65.00;;;;;;5013599;28;20073;-76
2023/08/08 11:44:35;;;;;;;1.42;0.80;;;22.20;64.50;;;;;;5013244;28;20034;-76
2023/08/08 11:47:02;;;;;;;2.33;1.10;;;22.20;62.90;;;;;;5013536;28;20029;-77
2023/08/08 11:49:28;;;;;;;2.25;0.90;;;22.20;64.50;;;;;;5014837;28;20053;-76
2023/08/08 11:51:57;;;;;;;3.92;0.98;;;22.30;65.70;;;;;;5013499;28;20064;-76
2023/08/08 11:54:22;;;;;;;1.80;0.90;;;22.40;66.60;;;;;;5014704;28;20033;-76
2023/08/08 11:56:48;;;;;;;2.13;1.00;;;22.50;60.60;;;;;;5013289;28;20038;-77
2023/08/08 11:59:14;;;;;;;1.55;0.73;;;22.60;61.20;;;;;;4996549;28;20036;-76
2023/08/08 12:01:42;;;;;;;1.75;0.73;;;22.60;63.10;;;;;;5014435;28;20038;-76
2023/08/08 12:04:09;;;;;;;1.20;0.80;;;22.70;61.70;;;;;;5014234;28;20029;-76
2023/08/08 12:06:40;;;;;;;1.60;0.90;;;22.90;61.70;;;;;;5013349;28;20026;-76
2023/08/08 12:09:06;;;;;;;1.38;0.80;;;23.00;62.50;;;;;;5014354;28;20029;-76
2023/08/08 12:11:36;;;;;;;1.75;0.85;;;23.00;62.60;;;;;;5014513;28;20018;-76
2023/08/08 12:14:02;;;;;;;1.48;0.85;;;23.10;64.30;;;;;;5014625;28;20037;-77
2023/08/08 12:16:30;;;;;;;1.65;0.98;;;23.10;63.30;;;;;;5014049;28;20034;-76
2023/08/08 12:18:56;;;;;;;2.22;1.00;;;23.10;65.00;;;;;;5014056;28;20030;-77
2023/08/08 12:21:22;;;;;;;2.72;0.90;;;23.10;65.50;;;;;;5014181;28;20125;-77
2023/08/08 12:23:47;;;;;;;2.17;0.88;;;23.00;65.00;;;;;;5012903;28;20080;-77
2023/08/08 12:26:13;;;;;;;2.22;1.08;;;22.90;65.90;;;;;;5012932;28;20021;-77
2023/08/08 12:28:39;;;;;;;2.13;0.90;;;22.90;67.10;;;;;;4980123;28;20030;-77
2023/08/08 12:31:04;;;;;;;2.55;1.10;;;22.90;65.70;;;;;;5012627;28;20026;-76
2023/08/08 12:33:30;;;;;;;1.50;0.75;;;22.80;65.90;;;;;;5012671;28;20038;-77
2023/08/08 12:35:56;;;;;;;2.15;0.77;;;22.70;67.10;;;;;;4980230;28;20033;-76
2023/08/08 12:38:21;;;;;;;1.83;0.82;;;22.60;66.50;;;;;;4996287;28;20081;-77
2023/08/08 12:40:48;;;;;;;3.40;1.00;;;22.50;66.40;;;;;;4995488;28;20116;-75
2023/08/08 12:43:17;;;;;;;1.70;0.90;;;22.40;66.50;;;;;;5012323;28;20040;-77
2023/08/08 12:45:44;;;;;;;3.67;1.17;;;22.40;67.60;;;;;;4996672;28;20033;-76
2023/08/08 12:48:11;;;;;;;3.30;0.98;;;22.40;65.60;;;;;;5012603;28;20536;-77
2023/08/08 12:50:37;;;;;;;1.75;0.90;;;22.50;67.40;;;;;;5012681;28;20057;-76